This is the latest recevied weather packets stored in our database for station/object HA5KNF-10. If no packets are shown the sender has not sent any weather packets the latest 10 day(s).
| Time | Temp. | Humidity | Pressure | Rain* | Wind** | Luminosity | Snow |
|---|---|---|---|---|---|---|---|
| 1788650343 | 17.78° C | 57% | 1007.9 hPa | - | - | - | - |
| 1788646803 | 17.22° C | 58% | 1007.8 hPa | - | - | - | - |
| 1788643263 | 17.78° C | 57% | 1007.5 hPa | - | - | - | - |
| 1788639723 | 19.44° C | 51% | 1007.2 hPa | - | - | - | - |
| 1788636183 | 18.89° C | 53% | 1006.6 hPa | - | - | - | - |
| 1788632643 | 18.89° C | 52% | 1006 hPa | - | - | - | - |
| 1788629102 | 20.56° C | 47% | 1005.1 hPa | - | - | - | - |
| 1788625562 | 22.78° C | 40% | 1004.9 hPa | - | - | - | - |
| 1788622022 | 23.89° C | 36% | 1004.7 hPa | - | - | - | - |
| 1788618482 | 24.44° C | 33% | 1004.7 hPa | - | - | - | - |
| 1788614942 | 25.56° C | 31% | 1004.5 hPa | - | - | - | - |
| 1788611402 | 24.44° C | 36% | 1004.7 hPa | - | - | - | - |
| 1788607862 | 20.56° C | 61% | 1005.1 hPa | - | - | - | - |
| 1788604322 | 25° C | 33% | 1004.3 hPa | - | - | - | - |
| 1788600781 | 25° C | 36% | 1004.8 hPa | - | - | - | - |
| 1788597241 | 23.89° C | 41% | 1004.6 hPa | - | - | - | - |
| 1788593701 | 23.33° C | 46% | 1003.1 hPa | - | - | - | - |
| 1788590161 | 25° C | 42% | 1001.2 hPa | - | - | - | - |
| 1788586622 | 20° C | 55% | 1000.3 hPa | - | - | - | - |
| 1788583081 | 17.78° C | 60% | 999.8 hPa | - | - | - | - |
| 1788579541 | 19.44° C | 54% | 999.3 hPa | - | - | - | - |
| 1788576001 | 19.44° C | 55% | 999.3 hPa | - | - | - | - |
| 1788572460 | 18.89° C | 56% | 999.4 hPa | - | - | - | - |
| 1788568920 | 18.33° C | 57% | 999.2 hPa | - | - | - | - |
| 1788565380 | 19.44° C | 53% | 999.6 hPa | - | - | - | - |
* Rain since midnight (hover to see other rain measurements)
** Current wind speed in m/s (hover to see current wind gust speed)